sensor_id;sensor_type;location;lat;lon;timestamp;pressure;altitude;pressure_sealevel;temperature;humidity
43820;BME280;67762;52.476;6.046;2023-07-30T00:02:03;100747.97;;;14.84;88.80
43820;BME280;67762;52.476;6.046;2023-07-30T00:04:29;100754.56;;;14.82;88.99
43820;BME280;67762;52.476;6.046;2023-07-30T00:06:54;100745.66;;;14.81;88.95
43820;BME280;67762;52.476;6.046;2023-07-30T00:09:20;100758.47;;;14.79;89.46
43820;BME280;67762;52.476;6.046;2023-07-30T00:11:46;100761.97;;;14.80;89.42
43820;BME280;67762;52.476;6.046;2023-07-30T00:14:12;100755.56;;;14.81;89.26
43820;BME280;67762;52.476;6.046;2023-07-30T00:16:37;100760.75;;;14.82;89.36
43820;BME280;67762;52.476;6.046;2023-07-30T00:19:03;100752.69;;;14.82;88.96
43820;BME280;67762;52.476;6.046;2023-07-30T00:21:29;100755.38;;;14.82;89.09
43820;BME280;67762;52.476;6.046;2023-07-30T00:23:55;100754.34;;;14.83;89.37
43820;BME280;67762;52.476;6.046;2023-07-30T00:26:20;100757.88;;;14.84;89.00
43820;BME280;67762;52.476;6.046;2023-07-30T00:28:46;100758.50;;;14.86;89.12
43820;BME280;67762;52.476;6.046;2023-07-30T00:31:12;100756.50;;;14.94;89.08
43820;BME280;67762;52.476;6.046;2023-07-30T00:33:37;100761.50;;;14.97;89.15
43820;BME280;67762;52.476;6.046;2023-07-30T00:36:03;100759.63;;;14.98;88.92
43820;BME280;67762;52.476;6.046;2023-07-30T00:38:29;100759.19;;;14.94;88.88
43820;BME280;67762;52.476;6.046;2023-07-30T00:40:55;100758.56;;;14.92;89.24
43820;BME280;67762;52.476;6.046;2023-07-30T00:43:22;100763.09;;;14.92;88.53
43820;BME280;67762;52.476;6.046;2023-07-30T00:45:48;100760.78;;;14.89;89.26
43820;BME280;67762;52.476;6.046;2023-07-30T00:48:14;100758.09;;;14.89;89.16
43820;BME280;67762;52.476;6.046;2023-07-30T00:50:40;100758.94;;;14.89;89.54
43820;BME280;67762;52.476;6.046;2023-07-30T00:53:07;100753.13;;;14.86;89.09
43820;BME280;67762;52.476;6.046;2023-07-30T00:55:35;100755.19;;;14.84;89.09
43820;BME280;67762;52.476;6.046;2023-07-30T00:58:01;100757.03;;;14.83;89.40
43820;BME280;67762;52.476;6.046;2023-07-30T01:00:27;100765.75;;;14.85;89.43
43820;BME280;67762;52.476;6.046;2023-07-30T01:02:55;100753.72;;;14.81;89.31
43820;BME280;67762;52.476;6.046;2023-07-30T01:05:21;100755.56;;;14.81;89.07
43820;BME280;67762;52.476;6.046;2023-07-30T01:07:48;100749.81;;;14.84;88.96
43820;BME280;67762;52.476;6.046;2023-07-30T01:10:14;100757.69;;;14.85;89.09
43820;BME280;67762;52.476;6.046;2023-07-30T01:12:42;100763.88;;;14.86;88.98
43820;BME280;67762;52.476;6.046;2023-07-30T01:15:09;100767.78;;;14.83;88.52
43820;BME280;67762;52.476;6.046;2023-07-30T01:17:35;100770.47;;;14.83;88.76
43820;BME280;67762;52.476;6.046;2023-07-30T01:20:01;100773.97;;;14.84;87.98
43820;BME280;67762;52.476;6.046;2023-07-30T01:22:27;100759.72;;;14.83;88.15
43820;BME280;67762;52.476;6.046;2023-07-30T01:24:53;100771.94;;;14.86;88.16
43820;BME280;67762;52.476;6.046;2023-07-30T01:27:24;100771.38;;;14.90;88.08
43820;BME280;67762;52.476;6.046;2023-07-30T01:29:52;100774.88;;;14.91;87.57
43820;BME280;67762;52.476;6.046;2023-07-30T01:32:25;100778.75;;;14.88;87.44
43820;BME280;67762;52.476;6.046;2023-07-30T01:34:56;100773.16;;;14.83;87.97
43820;BME280;67762;52.476;6.046;2023-07-30T01:37:23;100775.59;;;14.78;87.93
43820;BME280;67762;52.476;6.046;2023-07-30T01:39:50;100775.19;;;14.81;87.81
43820;BME280;67762;52.476;6.046;2023-07-30T01:42:16;100784.13;;;14.88;88.11
43820;BME280;67762;52.476;6.046;2023-07-30T01:44:42;100786.66;;;14.90;87.35
43820;BME280;67762;52.476;6.046;2023-07-30T01:47:08;100778.75;;;14.88;87.72
43820;BME280;67762;52.476;6.046;2023-07-30T01:49:34;100785.81;;;14.89;87.30
43820;BME280;67762;52.476;6.046;2023-07-30T01:51:59;100778.59;;;14.90;88.01
43820;BME280;67762;52.476;6.046;2023-07-30T01:54:25;100774.06;;;14.90;87.49
43820;BME280;67762;52.476;6.046;2023-07-30T01:56:52;100783.59;;;14.93;87.40
43820;BME280;67762;52.476;6.046;2023-07-30T01:59:18;100774.09;;;14.97;87.46
43820;BME280;67762;52.476;6.046;2023-07-30T02:01:44;100776.59;;;14.98;87.09
43820;BME280;67762;52.476;6.046;2023-07-30T02:04:10;100774.94;;;14.97;87.18
43820;BME280;67762;52.476;6.046;2023-07-30T02:06:35;100780.31;;;14.97;87.96
43820;BME280;67762;52.476;6.046;2023-07-30T02:09:01;100779.66;;;14.95;87.43
43820;BME280;67762;52.476;6.046;2023-07-30T02:11:27;100777.81;;;14.96;87.34
43820;BME280;67762;52.476;6.046;2023-07-30T02:13:54;100785.22;;;14.94;87.89
43820;BME280;67762;52.476;6.046;2023-07-30T02:16:19;100783.13;;;14.89;87.72
43820;BME280;67762;52.476;6.046;2023-07-30T02:18:45;100783.88;;;14.83;88.04
43820;BME280;67762;52.476;6.046;2023-07-30T02:21:11;100788.25;;;14.84;88.41
43820;BME280;67762;52.476;6.046;2023-07-30T02:23:36;100789.66;;;14.80;88.64
43820;BME280;67762;52.476;6.046;2023-07-30T02:26:02;100786.31;;;14.78;89.05
43820;BME280;67762;52.476;6.046;2023-07-30T02:28:28;100787.16;;;14.79;89.19
43820;BME280;67762;52.476;6.046;2023-07-30T02:30:53;100783.84;;;14.77;89.36
43820;BME280;67762;52.476;6.046;2023-07-30T02:33:19;100788.19;;;14.78;89.49
43820;BME280;67762;52.476;6.046;2023-07-30T02:35:45;100788.38;;;14.76;89.61
43820;BME280;67762;52.476;6.046;2023-07-30T02:38:11;100778.41;;;14.70;89.85
43820;BME280;67762;52.476;6.046;2023-07-30T02:40:36;100781.28;;;14.69;90.48
43820;BME280;67762;52.476;6.046;2023-07-30T02:43:02;100779.41;;;14.69;90.89
43820;BME280;67762;52.476;6.046;2023-07-30T02:45:29;100783.84;;;14.77;91.21
43820;BME280;67762;52.476;6.046;2023-07-30T02:47:55;100782.81;;;14.78;90.94
43820;BME280;67762;52.476;6.046;2023-07-30T02:50:21;100781.41;;;14.82;91.08
43820;BME280;67762;52.476;6.046;2023-07-30T02:52:46;100778.13;;;14.86;91.76
43820;BME280;67762;52.476;6.046;2023-07-30T02:55:12;100779.22;;;14.92;91.50
43820;BME280;67762;52.476;6.046;2023-07-30T02:57:38;100775.97;;;14.96;91.55
43820;BME280;67762;52.476;6.046;2023-07-30T03:00:04;100782.81;;;14.99;91.58
43820;BME280;67762;52.476;6.046;2023-07-30T03:02:30;100782.44;;;15.02;91.27
43820;BME280;67762;52.476;6.046;2023-07-30T03:04:56;100782.84;;;15.05;91.56
43820;BME280;67762;52.476;6.046;2023-07-30T03:07:21;100777.47;;;15.05;91.99
43820;BME280;67762;52.476;6.046;2023-07-30T03:09:47;100783.91;;;15.04;91.75
43820;BME280;67762;52.476;6.046;2023-07-30T03:12:13;100783.22;;;15.02;92.39
43820;BME280;67762;52.476;6.046;2023-07-30T03:14:39;100784.44;;;15.00;91.86
43820;BME280;67762;52.476;6.046;2023-07-30T03:17:05;100783.00;;;14.97;92.13
43820;BME280;67762;52.476;6.046;2023-07-30T03:19:31;100778.84;;;14.95;92.76
43820;BME280;67762;52.476;6.046;2023-07-30T03:21:56;100784.22;;;14.95;92.72
43820;BME280;67762;52.476;6.046;2023-07-30T03:24:22;100797.63;;;14.95;93.27
43820;BME280;67762;52.476;6.046;2023-07-30T03:26:48;100788.94;;;14.93;92.95
43820;BME280;67762;52.476;6.046;2023-07-30T03:29:14;100787.09;;;14.93;93.11
43820;BME280;67762;52.476;6.046;2023-07-30T03:31:40;100791.63;;;14.93;93.86
43820;BME280;67762;52.476;6.046;2023-07-30T03:34:06;100792.66;;;14.92;93.80
43820;BME280;67762;52.476;6.046;2023-07-30T03:36:31;100792.19;;;14.88;94.22
43820;BME280;67762;52.476;6.046;2023-07-30T03:38:57;100796.75;;;14.88;94.14
43820;BME280;67762;52.476;6.046;2023-07-30T03:41:23;100788.03;;;14.86;94.25
43820;BME280;67762;52.476;6.046;2023-07-30T03:43:49;100782.25;;;14.82;94.06
43820;BME280;67762;52.476;6.046;2023-07-30T03:46:14;100780.78;;;14.80;94.63
43820;BME280;67762;52.476;6.046;2023-07-30T03:48:40;100780.56;;;14.81;94.71
43820;BME280;67762;52.476;6.046;2023-07-30T03:51:07;100777.88;;;14.81;94.62
43820;BME280;67762;52.476;6.046;2023-07-30T03:53:33;100785.94;;;14.81;94.92
43820;BME280;67762;52.476;6.046;2023-07-30T03:55:58;100781.41;;;14.82;94.98
43820;BME280;67762;52.476;6.046;2023-07-30T03:58:25;100787.41;;;14.84;95.44
43820;BME280;67762;52.476;6.046;2023-07-30T04:00:51;100795.31;;;14.85;95.36
43820;BME280;67762;52.476;6.046;2023-07-30T04:03:16;100792.19;;;14.88;95.53
43820;BME280;67762;52.476;6.046;2023-07-30T04:05:42;100791.81;;;14.91;95.63
43820;BME280;67762;52.476;6.046;2023-07-30T04:08:08;100793.69;;;14.91;95.89
43820;BME280;67762;52.476;6.046;2023-07-30T04:10:33;100793.28;;;14.94;95.90
43820;BME280;67762;52.476;6.046;2023-07-30T04:12:59;100792.09;;;14.96;96.17
43820;BME280;67762;52.476;6.046;2023-07-30T04:15:25;100792.09;;;14.96;95.96
43820;BME280;67762;52.476;6.046;2023-07-30T04:17:51;100795.59;;;14.97;96.00
43820;BME280;67762;52.476;6.046;2023-07-30T04:20:17;100798.94;;;14.99;96.61
43820;BME280;67762;52.476;6.046;2023-07-30T04:22:43;100797.06;;;14.99;96.44
43820;BME280;67762;52.476;6.046;2023-07-30T04:25:09;100797.50;;;15.03;96.71
43820;BME280;67762;52.476;6.046;2023-07-30T04:27:36;100801.66;;;15.05;96.55
43820;BME280;67762;52.476;6.046;2023-07-30T04:30:06;100793.03;;;15.10;96.70
43820;BME280;67762;52.476;6.046;2023-07-30T04:32:32;100791.59;;;15.14;96.23
43820;BME280;67762;52.476;6.046;2023-07-30T04:34:58;100791.22;;;15.17;96.87
43820;BME280;67762;52.476;6.046;2023-07-30T04:37:23;100803.25;;;15.21;96.82
43820;BME280;67762;52.476;6.046;2023-07-30T04:39:50;100791.06;;;15.25;96.30
43820;BME280;67762;52.476;6.046;2023-07-30T04:42:16;100796.28;;;15.33;96.14
43820;BME280;67762;52.476;6.046;2023-07-30T04:44:43;100800.50;;;15.42;95.78
43820;BME280;67762;52.476;6.046;2023-07-30T04:47:13;100800.38;;;15.50;96.23
43820;BME280;67762;52.476;6.046;2023-07-30T04:49:38;100802.09;;;15.58;95.58
43820;BME280;67762;52.476;6.046;2023-07-30T04:52:08;100798.44;;;15.65;95.70
43820;BME280;67762;52.476;6.046;2023-07-30T04:54:34;100802.81;;;15.73;95.47
43820;BME280;67762;52.476;6.046;2023-07-30T04:57:02;100803.88;;;15.78;95.18
43820;BME280;67762;52.476;6.046;2023-07-30T04:59:28;100811.56;;;15.82;94.95
43820;BME280;67762;52.476;6.046;2023-07-30T05:01:53;100813.00;;;15.84;94.56
43820;BME280;67762;52.476;6.046;2023-07-30T05:04:19;100812.63;;;15.87;95.32
43820;BME280;67762;52.476;6.046;2023-07-30T05:06:45;100824.00;;;15.89;94.72
43820;BME280;67762;52.476;6.046;2023-07-30T05:09:10;100817.22;;;15.93;94.97
43820;BME280;67762;52.476;6.046;2023-07-30T05:11:38;100814.75;;;15.98;95.06
43820;BME280;67762;52.476;6.046;2023-07-30T05:14:04;100814.34;;;16.01;94.53
43820;BME280;67762;52.476;6.046;2023-07-30T05:16:29;100815.41;;;16.07;94.42
43820;BME280;67762;52.476;6.046;2023-07-30T05:18:55;100835.94;;;16.14;94.27
43820;BME280;67762;52.476;6.046;2023-07-30T05:21:21;100830.16;;;16.17;94.91
43820;BME280;67762;52.476;6.046;2023-07-30T05:23:46;100834.94;;;16.22;94.96
43820;BME280;67762;52.476;6.046;2023-07-30T05:26:12;100840.75;;;16.25;94.78
43820;BME280;67762;52.476;6.046;2023-07-30T05:28:37;100836.19;;;16.26;94.42
43820;BME280;67762;52.476;6.046;2023-07-30T05:31:03;100831.03;;;16.31;94.53
43820;BME280;67762;52.476;6.046;2023-07-30T05:33:29;100833.94;;;16.36;94.14
43820;BME280;67762;52.476;6.046;2023-07-30T05:35:54;100840.00;;;16.38;94.16
43820;BME280;67762;52.476;6.046;2023-07-30T05:38:20;100837.53;;;16.43;94.11
43820;BME280;67762;52.476;6.046;2023-07-30T05:40:45;100844.16;;;16.47;93.77
43820;BME280;67762;52.476;6.046;2023-07-30T05:43:11;100838.00;;;16.53;93.40
43820;BME280;67762;52.476;6.046;2023-07-30T05:45:36;100846.09;;;16.60;93.12
43820;BME280;67762;52.476;6.046;2023-07-30T05:48:02;100846.94;;;16.67;93.18
43820;BME280;67762;52.476;6.046;2023-07-30T05:50:28;100843.66;;;16.71;92.67
43820;BME280;67762;52.476;6.046;2023-07-30T05:52:53;100848.81;;;16.73;92.72
43820;BME280;67762;52.476;6.046;2023-07-30T05:55:19;100841.56;;;16.73;91.86
43820;BME280;67762;52.476;6.046;2023-07-30T05:57:45;100842.00;;;16.77;92.12
43820;BME280;67762;52.476;6.046;2023-07-30T06:00:11;100847.38;;;16.83;92.09
43820;BME280;67762;52.476;6.046;2023-07-30T06:02:39;100842.44;;;16.93;92.15
43820;BME280;67762;52.476;6.046;2023-07-30T06:05:05;100851.16;;;17.02;92.17
43820;BME280;67762;52.476;6.046;2023-07-30T06:07:31;100840.59;;;17.07;91.57
43820;BME280;67762;52.476;6.046;2023-07-30T06:09:57;100842.44;;;17.13;91.03
43820;BME280;67762;52.476;6.046;2023-07-30T06:12:22;100831.03;;;17.24;90.75
43820;BME280;67762;52.476;6.046;2023-07-30T06:14:48;100838.94;;;17.39;90.10
43820;BME280;67762;52.476;6.046;2023-07-30T06:17:13;100838.34;;;17.57;89.65
43820;BME280;67762;52.476;6.046;2023-07-30T06:19:39;100841.19;;;17.75;89.41
43820;BME280;67762;52.476;6.046;2023-07-30T06:22:05;100831.81;;;17.97;87.96
43820;BME280;67762;52.476;6.046;2023-07-30T06:24:31;100840.47;;;18.19;87.69
43820;BME280;67762;52.476;6.046;2023-07-30T06:26:56;100842.91;;;18.33;86.36
43820;BME280;67762;52.476;6.046;2023-07-30T06:29:22;100848.69;;;18.43;85.05
43820;BME280;67762;52.476;6.046;2023-07-30T06:31:48;100839.94;;;18.54;84.41
43820;BME280;67762;52.476;6.046;2023-07-30T06:34:13;100845.25;;;18.67;83.37
43820;BME280;67762;52.476;6.046;2023-07-30T06:36:39;100839.00;;;18.74;82.77
43820;BME280;67762;52.476;6.046;2023-07-30T06:39:05;100837.75;;;18.69;81.58
43820;BME280;67762;52.476;6.046;2023-07-30T06:41:30;100839.00;;;18.74;81.10
43820;BME280;67762;52.476;6.046;2023-07-30T06:43:56;100849.97;;;18.79;81.16
43820;BME280;67762;52.476;6.046;2023-07-30T06:46:22;100850.16;;;18.84;80.24
43820;BME280;67762;52.476;6.046;2023-07-30T06:48:47;100843.31;;;18.81;79.72
43820;BME280;67762;52.476;6.046;2023-07-30T06:51:13;100840.22;;;18.78;78.83
43820;BME280;67762;52.476;6.046;2023-07-30T06:53:39;100843.53;;;18.80;79.53
43820;BME280;67762;52.476;6.046;2023-07-30T06:56:05;100841.00;;;18.85;79.57
43820;BME280;67762;52.476;6.046;2023-07-30T06:58:31;100837.88;;;18.88;78.80
43820;BME280;67762;52.476;6.046;2023-07-30T07:00:56;100840.19;;;18.84;78.03
43820;BME280;67762;52.476;6.046;2023-07-30T07:03:22;100838.75;;;18.82;77.78
43820;BME280;67762;52.476;6.046;2023-07-30T07:05:57;100834.19;;;18.76;77.74
43820;BME280;67762;52.476;6.046;2023-07-30T07:08:22;100839.84;;;18.67;78.15
43820;BME280;67762;52.476;6.046;2023-07-30T07:10:49;100838.63;;;18.63;78.27
43820;BME280;67762;52.476;6.046;2023-07-30T07:13:14;100839.25;;;18.65;79.24
43820;BME280;67762;52.476;6.046;2023-07-30T07:15:44;100830.72;;;18.68;79.20
43820;BME280;67762;52.476;6.046;2023-07-30T07:18:10;100845.88;;;18.69;79.06
43820;BME280;67762;52.476;6.046;2023-07-30T07:20:36;100843.41;;;18.61;78.58
43820;BME280;67762;52.476;6.046;2023-07-30T07:23:03;100839.47;;;18.64;79.20
43820;BME280;67762;52.476;6.046;2023-07-30T07:25:29;100845.25;;;18.67;78.47
43820;BME280;67762;52.476;6.046;2023-07-30T07:27:54;100851.69;;;18.73;79.12
43820;BME280;67762;52.476;6.046;2023-07-30T07:30:20;100852.09;;;18.77;78.63
43820;BME280;67762;52.476;6.046;2023-07-30T07:32:46;100860.56;;;18.80;78.57
43820;BME280;67762;52.476;6.046;2023-07-30T07:35:18;100844.78;;;18.77;77.37
43820;BME280;67762;52.476;6.046;2023-07-30T07:37:44;100853.13;;;18.76;76.63
43820;BME280;67762;52.476;6.046;2023-07-30T07:40:10;100847.03;;;18.87;77.27
43820;BME280;67762;52.476;6.046;2023-07-30T07:42:38;100853.97;;;19.07;76.86
43820;BME280;67762;52.476;6.046;2023-07-30T07:45:05;100845.03;;;19.32;75.84
43820;BME280;67762;52.476;6.046;2023-07-30T07:47:31;100855.72;;;19.51;74.85
43820;BME280;67762;52.476;6.046;2023-07-30T07:49:56;100854.91;;;19.69;73.45
43820;BME280;67762;52.476;6.046;2023-07-30T07:52:22;100854.41;;;19.97;73.49
43820;BME280;67762;52.476;6.046;2023-07-30T07:54:48;100853.66;;;20.08;73.01
43820;BME280;67762;52.476;6.046;2023-07-30T07:57:13;100858.03;;;20.09;73.01
43820;BME280;67762;52.476;6.046;2023-07-30T07:59:39;100868.41;;;19.94;71.89
43820;BME280;67762;52.476;6.046;2023-07-30T08:02:07;100860.56;;;19.85;72.58
43820;BME280;67762;52.476;6.046;2023-07-30T08:04:32;100865.84;;;19.80;72.62
43820;BME280;67762;52.476;6.046;2023-07-30T08:06:58;100865.38;;;19.65;72.26
43820;BME280;67762;52.476;6.046;2023-07-30T08:09:31;100863.69;;;19.46;72.48
43820;BME280;67762;52.476;6.046;2023-07-30T08:11:57;100852.47;;;19.36;72.77
43820;BME280;67762;52.476;6.046;2023-07-30T08:14:23;100853.16;;;19.32;73.30
43820;BME280;67762;52.476;6.046;2023-07-30T08:16:48;100853.34;;;19.30;73.80
43820;BME280;67762;52.476;6.046;2023-07-30T08:19:14;100852.44;;;19.18;73.08
43820;BME280;67762;52.476;6.046;2023-07-30T08:21:39;100863.13;;;19.06;74.13
43820;BME280;67762;52.476;6.046;2023-07-30T08:24:05;100858.56;;;19.00;74.70
43820;BME280;67762;52.476;6.046;2023-07-30T08:26:31;100844.91;;;18.89;73.84
43820;BME280;67762;52.476;6.046;2023-07-30T08:28:57;100842.72;;;18.79;74.44
43820;BME280;67762;52.476;6.046;2023-07-30T08:31:23;100844.59;;;18.72;75.44
43820;BME280;67762;52.476;6.046;2023-07-30T08:33:48;100832.25;;;18.51;76.04
43820;BME280;67762;52.476;6.046;2023-07-30T08:36:14;100843.88;;;17.94;78.32
43820;BME280;67762;52.476;6.046;2023-07-30T08:38:40;100844.09;;;17.80;80.75
43820;BME280;67762;52.476;6.046;2023-07-30T08:41:05;100831.59;;;17.98;80.42
43820;BME280;67762;52.476;6.046;2023-07-30T08:43:31;100840.59;;;18.43;79.16
43820;BME280;67762;52.476;6.046;2023-07-30T08:45:57;100842.53;;;18.74;77.29
43820;BME280;67762;52.476;6.046;2023-07-30T08:48:23;100849.06;;;18.91;75.85
43820;BME280;67762;52.476;6.046;2023-07-30T08:50:49;100844.50;;;18.92;73.79
43820;BME280;67762;52.476;6.046;2023-07-30T08:53:15;100845.75;;;18.89;73.40
43820;BME280;67762;52.476;6.046;2023-07-30T08:55:41;100846.41;;;18.85;73.41
43820;BME280;67762;52.476;6.046;2023-07-30T08:58:07;100854.34;;;18.80;73.70
43820;BME280;67762;52.476;6.046;2023-07-30T09:00:36;100863.16;;;18.68;73.88
43820;BME280;67762;52.476;6.046;2023-07-30T09:03:03;100860.50;;;18.55;74.73
43820;BME280;67762;52.476;6.046;2023-07-30T09:05:29;100856.78;;;18.43;75.47
43820;BME280;67762;52.476;6.046;2023-07-30T09:07:57;100870.53;;;18.48;75.39
43820;BME280;67762;52.476;6.046;2023-07-30T09:10:23;100878.00;;;18.40;75.09
43820;BME280;67762;52.476;6.046;2023-07-30T09:12:53;100868.66;;;18.36;76.54
43820;BME280;67762;52.476;6.046;2023-07-30T09:15:29;100881.19;;;18.24;75.83
43820;BME280;67762;52.476;6.046;2023-07-30T09:17:55;100879.25;;;18.37;73.33
43820;BME280;67762;52.476;6.046;2023-07-30T09:20:21;100874.06;;;18.49;73.68
43820;BME280;67762;52.476;6.046;2023-07-30T09:22:47;100869.78;;;18.66;73.91
43820;BME280;67762;52.476;6.046;2023-07-30T09:25:18;100870.78;;;18.78;73.62
43820;BME280;67762;52.476;6.046;2023-07-30T09:27:52;100866.81;;;18.81;72.76
43820;BME280;67762;52.476;6.046;2023-07-30T09:30:25;100876.06;;;18.98;72.58
43820;BME280;67762;52.476;6.046;2023-07-30T09:32:52;100883.91;;;19.06;73.38
43820;BME280;67762;52.476;6.046;2023-07-30T09:35:18;100883.91;;;19.06;73.38
43820;BME280;67762;52.476;6.046;2023-07-30T09:37:45;100872.03;;;19.38;73.04
43820;BME280;67762;52.476;6.046;2023-07-30T09:40:12;100891.41;;;20.27;69.61
43820;BME280;67762;52.476;6.046;2023-07-30T09:42:42;100898.47;;;20.65;69.00
43820;BME280;67762;52.476;6.046;2023-07-30T09:45:16;100893.00;;;20.53;67.76
43820;BME280;67762;52.476;6.046;2023-07-30T09:47:49;100894.31;;;20.08;68.93
43820;BME280;67762;52.476;6.046;2023-07-30T09:50:15;100907.97;;;19.76;70.08
43820;BME280;67762;52.476;6.046;2023-07-30T09:52:42;100908.22;;;19.44;71.16
43820;BME280;67762;52.476;6.046;2023-07-30T09:55:08;100916.53;;;18.80;74.44
43820;BME280;67762;52.476;6.046;2023-07-30T09:57:33;100929.75;;;18.30;77.07
43820;BME280;67762;52.476;6.046;2023-07-30T10:00:02;100917.97;;;18.05;78.86
43820;BME280;67762;52.476;6.046;2023-07-30T10:02:31;100925.94;;;17.74;81.17
43820;BME280;67762;52.476;6.046;2023-07-30T10:04:59;100918.81;;;17.27;82.93
43820;BME280;67762;52.476;6.046;2023-07-30T10:07:26;100913.59;;;16.99;84.96
43820;BME280;67762;52.476;6.046;2023-07-30T10:09:56;100923.06;;;16.88;86.24
43820;BME280;67762;52.476;6.046;2023-07-30T10:12:27;100934.28;;;16.92;86.66
43820;BME280;67762;52.476;6.046;2023-07-30T10:14:54;100931.00;;;17.16;86.70
43820;BME280;67762;52.476;6.046;2023-07-30T10:17:20;100935.47;;;17.57;86.18
43820;BME280;67762;52.476;6.046;2023-07-30T10:19:49;100937.31;;;17.89;85.64
43820;BME280;67762;52.476;6.046;2023-07-30T10:25:02;100939.53;;;18.31;83.18
43820;BME280;67762;52.476;6.046;2023-07-30T10:27:36;100929.31;;;18.46;81.41
43820;BME280;67762;52.476;6.046;2023-07-30T10:30:16;100937.47;;;18.27;80.99
43820;BME280;67762;52.476;6.046;2023-07-30T10:33:03;100944.75;;;18.26;80.34
43820;BME280;67762;52.476;6.046;2023-07-30T10:35:43;100945.09;;;18.56;79.26
43820;BME280;67762;52.476;6.046;2023-07-30T10:38:27;100945.88;;;18.76;77.76
43820;BME280;67762;52.476;6.046;2023-07-30T10:41:10;100934.78;;;20.03;74.87
43820;BME280;67762;52.476;6.046;2023-07-30T10:43:42;100926.78;;;20.69;70.58
43820;BME280;67762;52.476;6.046;2023-07-30T10:46:10;100934.84;;;21.05;69.43
43820;BME280;67762;52.476;6.046;2023-07-30T10:48:39;100943.66;;;21.48;67.65
43820;BME280;67762;52.476;6.046;2023-07-30T10:51:07;100951.50;;;21.91;65.29
43820;BME280;67762;52.476;6.046;2023-07-30T10:53:34;100945.72;;;22.23;63.24
43820;BME280;67762;52.476;6.046;2023-07-30T10:56:02;100952.75;;;22.58;62.12
43820;BME280;67762;52.476;6.046;2023-07-30T10:58:33;100940.50;;;22.33;60.85
43820;BME280;67762;52.476;6.046;2023-07-30T11:01:02;100937.13;;;22.77;60.12
43820;BME280;67762;52.476;6.046;2023-07-30T11:03:29;100938.25;;;23.04;58.12
43820;BME280;67762;52.476;6.046;2023-07-30T11:05:55;100936.13;;;22.95;57.63
43820;BME280;67762;52.476;6.046;2023-07-30T11:08:38;100930.63;;;23.35;56.97
43820;BME280;67762;52.476;6.046;2023-07-30T11:11:05;100926.84;;;23.69;57.31
43820;BME280;67762;52.476;6.046;2023-07-30T11:13:44;100928.66;;;23.97;56.09
43820;BME280;67762;52.476;6.046;2023-07-30T11:16:12;100927.91;;;24.34;54.63
43820;BME280;67762;52.476;6.046;2023-07-30T11:18:39;100930.25;;;24.09;53.23
43820;BME280;67762;52.476;6.046;2023-07-30T11:21:15;100931.22;;;24.03;53.22
43820;BME280;67762;52.476;6.046;2023-07-30T11:23:43;100936.19;;;23.90;53.12
43820;BME280;67762;52.476;6.046;2023-07-30T11:26:16;100926.78;;;23.64;52.50
43820;BME280;67762;52.476;6.046;2023-07-30T11:28:43;100931.66;;;24.12;52.62
43820;BME280;67762;52.476;6.046;2023-07-30T11:31:27;100923.63;;;24.05;52.06
43820;BME280;67762;52.476;6.046;2023-07-30T11:33:52;100930.47;;;23.41;51.67
43820;BME280;67762;52.476;6.046;2023-07-30T11:36:20;100937.88;;;23.29;52.45
43820;BME280;67762;52.476;6.046;2023-07-30T11:38:47;100942.69;;;23.10;52.61
43820;BME280;67762;52.476;6.046;2023-07-30T11:41:13;100936.97;;;22.95;52.92
43820;BME280;67762;52.476;6.046;2023-07-30T11:43:42;100946.16;;;22.66;52.87
43820;BME280;67762;52.476;6.046;2023-07-30T11:46:10;100942.13;;;22.68;53.32
43820;BME280;67762;52.476;6.046;2023-07-30T11:48:37;100945.28;;;22.77;52.20
43820;BME280;67762;52.476;6.046;2023-07-30T11:51:03;100939.59;;;22.90;51.51
43820;BME280;67762;52.476;6.046;2023-07-30T11:53:53;100961.06;;;23.76;49.68
43820;BME280;67762;52.476;6.046;2023-07-30T11:56:24;100943.41;;;23.79;48.92
43820;BME280;67762;52.476;6.046;2023-07-30T11:58:59;100970.78;;;23.89;49.99
43820;BME280;67762;52.476;6.046;2023-07-30T12:01:28;100963.38;;;24.01;49.42
43820;BME280;67762;52.476;6.046;2023-07-30T12:03:56;100963.53;;;23.95;49.02
43820;BME280;67762;52.476;6.046;2023-07-30T12:06:22;100974.56;;;24.05;50.06
43820;BME280;67762;52.476;6.046;2023-07-30T12:08:50;100962.28;;;24.02;49.40
43820;BME280;67762;52.476;6.046;2023-07-30T12:11:18;100962.88;;;23.71;49.15
43820;BME280;67762;52.476;6.046;2023-07-30T12:13:46;100973.00;;;23.59;49.18
43820;BME280;67762;52.476;6.046;2023-07-30T12:16:14;100967.00;;;23.57;49.48
43820;BME280;67762;52.476;6.046;2023-07-30T12:18:40;100974.91;;;23.58;49.83
43820;BME280;67762;52.476;6.046;2023-07-30T12:21:06;100964.09;;;23.63;49.94
43820;BME280;67762;52.476;6.046;2023-07-30T12:23:35;100962.63;;;23.89;49.49
43820;BME280;67762;52.476;6.046;2023-07-30T12:26:02;100963.13;;;23.69;48.84
43820;BME280;67762;52.476;6.046;2023-07-30T12:28:31;100971.22;;;23.98;49.28
43820;BME280;67762;52.476;6.046;2023-07-30T12:30:57;100972.88;;;24.15;49.01
43820;BME280;67762;52.476;6.046;2023-07-30T12:33:22;100957.00;;;23.96;47.69
43820;BME280;67762;52.476;6.046;2023-07-30T12:35:48;100964.84;;;23.92;49.08
43820;BME280;67762;52.476;6.046;2023-07-30T12:38:15;100972.53;;;24.28;47.96
43820;BME280;67762;52.476;6.046;2023-07-30T12:40:41;100970.56;;;23.57;48.66
43820;BME280;67762;52.476;6.046;2023-07-30T12:43:06;100959.75;;;23.06;49.70
43820;BME280;67762;52.476;6.046;2023-07-30T12:45:34;100966.84;;;22.44;50.56
43820;BME280;67762;52.476;6.046;2023-07-30T12:48:00;100962.47;;;21.85;51.67
43820;BME280;67762;52.476;6.046;2023-07-30T12:50:26;100967.34;;;21.94;52.70
43820;BME280;67762;52.476;6.046;2023-07-30T12:52:52;100956.22;;;22.54;51.78